createdAt,value
2022-12-25T00:01:08.096Z,88.44
2022-12-25T00:03:36.998Z,88.51
2022-12-25T00:06:04.305Z,88.13
2022-12-25T00:08:31.761Z,88.54
2022-12-25T00:11:00.789Z,88.15
2022-12-25T00:13:29.003Z,88.26
2022-12-25T00:15:56.455Z,88.47
2022-12-25T00:18:25.534Z,88.27
2022-12-25T00:21:00.117Z,88.26
2022-12-25T00:23:27.883Z,88.07
2022-12-25T00:25:55.036Z,88.02
2022-12-25T00:28:23.959Z,87.88
2022-12-25T00:35:00.229Z,87.87
2022-12-25T00:37:27.019Z,87.68
2022-12-25T00:39:54.135Z,88.20
2022-12-25T00:42:20.975Z,88.22
2022-12-25T00:44:49.299Z,88.26
2022-12-25T00:51:54.286Z,87.61
2022-12-25T00:54:22.056Z,87.42
2022-12-25T00:56:49.073Z,87.84
2022-12-25T00:59:16.390Z,87.43
2022-12-25T01:01:44.017Z,87.26
2022-12-25T01:04:12.603Z,87.02
2022-12-25T01:06:40.279Z,87.48
2022-12-25T01:09:09.270Z,87.35
2022-12-25T01:11:36.485Z,87.39
2022-12-25T01:14:03.672Z,87.24
2022-12-25T01:16:30.892Z,86.97
2022-12-25T01:18:58.016Z,87.30
2022-12-25T01:21:26.771Z,87.33
2022-12-25T01:23:54.238Z,87.64
2022-12-25T01:26:25.508Z,86.84
2022-12-25T01:28:52.758Z,86.75
2022-12-25T01:31:23.027Z,87.24
2022-12-25T01:33:50.285Z,86.61
2022-12-25T01:36:21.927Z,86.54
2022-12-25T01:38:50.541Z,86.35
2022-12-25T01:41:21.012Z,86.47
2022-12-25T01:44:06.945Z,85.81
2022-12-25T01:46:36.398Z,86.81
2022-12-25T01:49:09.544Z,87.06
2022-12-25T01:51:43.565Z,86.51
2022-12-25T01:54:18.073Z,86.60
2022-12-25T01:56:51.496Z,86.13
2022-12-25T01:59:25.619Z,86.91
2022-12-25T02:01:56.384Z,86.66
2022-12-25T02:04:28.093Z,86.11
2022-12-25T02:06:55.029Z,86.42
2022-12-25T02:09:21.845Z,86.45
2022-12-25T02:11:48.679Z,85.94
2022-12-25T02:14:16.110Z,85.98
2022-12-25T02:16:57.691Z,85.54
2022-12-25T02:19:48.288Z,86.24
2022-12-25T02:22:33.270Z,86.12
2022-12-25T02:25:29.898Z,86.23
2022-12-25T02:28:13.699Z,86.15
2022-12-25T02:30:46.108Z,86.22
2022-12-25T02:33:20.911Z,86.83
2022-12-25T02:35:55.475Z,86.45
2022-12-25T02:38:33.136Z,86.78
2022-12-25T02:41:09.941Z,86.20
2022-12-25T02:43:43.282Z,86.68
2022-12-25T02:46:16.642Z,87.07
2022-12-25T02:48:49.565Z,86.88
2022-12-25T02:51:22.737Z,87.19
2022-12-25T02:53:55.658Z,87.35
2022-12-25T02:56:25.147Z,87.68
2022-12-25T02:58:53.943Z,88.12
2022-12-25T03:01:28.304Z,87.75
2022-12-25T03:04:01.723Z,87.53
2022-12-25T03:06:32.638Z,87.19
2022-12-25T03:09:04.919Z,87.86
2022-12-25T03:11:33.009Z,88.50
2022-12-25T03:14:05.816Z,89.11
2022-12-25T03:16:32.962Z,89.09
2022-12-25T03:19:00.352Z,89.37
2022-12-25T03:21:27.153Z,89.85
2022-12-25T03:24:01.350Z,90.21
2022-12-25T03:26:29.927Z,90.46
2022-12-25T03:28:56.918Z,90.63
2022-12-25T03:31:39.785Z,90.42
2022-12-25T03:34:35.474Z,90.76
2022-12-25T03:37:24.475Z,89.88
2022-12-25T03:40:03.740Z,90.25
2022-12-25T03:42:49.455Z,90.22
2022-12-25T03:45:26.474Z,90.09
2022-12-25T03:47:57.744Z,90.23
2022-12-25T03:50:34.429Z,90.44
2022-12-25T03:53:06.043Z,91.08
2022-12-25T03:55:36.012Z,90.97
2022-12-25T03:58:03.041Z,91.01
2022-12-25T04:00:30.327Z,91.32
2022-12-25T04:02:58.544Z,91.40
2022-12-25T04:05:25.335Z,91.21
2022-12-25T04:07:53.220Z,90.71
2022-12-25T04:10:20.189Z,91.59
2022-12-25T04:12:46.941Z,91.13
2022-12-25T04:15:13.986Z,91.77
2022-12-25T04:17:40.787Z,92.48
2022-12-25T04:20:10.365Z,92.02
2022-12-25T04:22:37.156Z,92.45
2022-12-25T04:25:04.642Z,92.55
2022-12-25T04:27:31.521Z,92.77
2022-12-25T04:29:58.386Z,92.75
2022-12-25T04:32:25.588Z,92.19
2022-12-25T04:34:52.633Z,92.40
2022-12-25T04:37:21.111Z,92.77
2022-12-25T04:39:48.097Z,92.42
2022-12-25T04:42:15.948Z,93.01
2022-12-25T04:44:42.744Z,93.15
2022-12-25T04:47:11.753Z,92.82
2022-12-25T04:49:39.223Z,93.65
2022-12-25T04:52:06.338Z,93.70
2022-12-25T04:54:34.681Z,93.00
2022-12-25T04:57:01.492Z,93.04
2022-12-25T04:59:28.347Z,93.07
2022-12-25T05:01:55.349Z,92.60
2022-12-25T05:04:22.328Z,92.52
2022-12-25T05:06:49.395Z,92.91
2022-12-25T05:09:16.354Z,92.65
2022-12-25T05:11:45.072Z,92.47
2022-12-25T05:14:11.834Z,92.06
2022-12-25T05:16:38.921Z,92.32
2022-12-25T05:19:05.687Z,92.42
2022-12-25T05:21:32.794Z,91.85
2022-12-25T05:23:59.593Z,91.74
2022-12-25T05:26:27.522Z,91.29
2022-12-25T05:28:56.264Z,90.34
2022-12-25T05:31:23.509Z,90.37
2022-12-25T05:33:51.079Z,90.21
2022-12-25T05:36:18.267Z,90.04
2022-12-25T05:38:45.200Z,90.55
2022-12-25T05:41:12.291Z,89.79
2022-12-25T05:43:39.149Z,90.13
2022-12-25T05:46:10.223Z,90.05
2022-12-25T05:48:38.482Z,90.15
2022-12-25T05:51:07.507Z,89.55
2022-12-25T05:53:35.683Z,90.06
2022-12-25T05:56:04.743Z,89.99
2022-12-25T05:58:33.849Z,89.91
2022-12-25T06:01:00.942Z,89.87
2022-12-25T06:03:29.683Z,90.01
2022-12-25T06:05:56.839Z,89.88
2022-12-25T06:08:23.683Z,90.39
2022-12-25T06:10:52.892Z,90.49
2022-12-25T06:13:19.719Z,90.39
2022-12-25T06:15:46.726Z,91.20
2022-12-25T06:18:13.559Z,91.05
2022-12-25T06:20:41.956Z,91.54
2022-12-25T06:23:08.991Z,91.33
2022-12-25T06:25:39.312Z,90.98
2022-12-25T06:28:06.836Z,91.35
2022-12-25T06:30:34.357Z,91.05
2022-12-25T06:33:01.215Z,90.93
2022-12-25T06:35:28.151Z,90.23
2022-12-25T06:37:56.674Z,90.22
2022-12-25T06:40:23.585Z,89.30
2022-12-25T06:42:52.014Z,89.90
2022-12-25T06:45:18.891Z,88.77
2022-12-25T06:47:48.092Z,88.79
2022-12-25T06:50:15.089Z,89.12
2022-12-25T06:52:41.945Z,89.09
2022-12-25T06:55:10.335Z,89.38
2022-12-25T06:57:37.666Z,89.14
2022-12-25T07:00:06.572Z,89.70
2022-12-25T07:02:34.993Z,89.31
2022-12-25T07:05:04.248Z,89.12
2022-12-25T07:07:31.425Z,88.67
2022-12-25T07:09:58.280Z,88.62
2022-12-25T07:12:26.599Z,88.21
2022-12-25T07:14:55.206Z,88.46
2022-12-25T07:17:22.650Z,88.36
2022-12-25T07:19:49.982Z,87.76
2022-12-25T07:22:17.373Z,88.24
2022-12-25T07:24:44.518Z,87.80
2022-12-25T07:27:11.666Z,87.70
2022-12-25T07:29:39.853Z,87.59
2022-12-25T07:32:07.109Z,87.22
2022-12-25T07:34:33.997Z,87.22
2022-12-25T07:37:00.840Z,87.41
2022-12-25T07:39:27.766Z,87.55
2022-12-25T07:41:54.785Z,87.47
2022-12-25T07:44:21.656Z,87.40
2022-12-25T07:46:49.799Z,87.06
2022-12-25T07:49:16.921Z,87.71
2022-12-25T07:51:43.656Z,87.76
2022-12-25T07:54:10.795Z,88.16
2022-12-25T07:56:37.589Z,87.69
2022-12-25T07:59:04.474Z,86.75
2022-12-25T08:01:31.413Z,87.44
2022-12-25T08:04:01.984Z,87.64
2022-12-25T08:06:32.927Z,87.59
2022-12-25T08:09:06.086Z,86.21
2022-12-25T08:11:33.390Z,86.33
2022-12-25T08:14:00.463Z,86.82
2022-12-25T08:16:27.483Z,86.38
2022-12-25T08:18:54.591Z,86.27
2022-12-25T08:21:22.801Z,86.90
2022-12-25T08:23:49.710Z,86.61
2022-12-25T08:26:20.372Z,86.44
2022-12-25T08:28:48.843Z,86.16
2022-12-25T08:31:19.509Z,86.68
2022-12-25T08:33:48.035Z,86.57
2022-12-25T08:36:16.504Z,85.84
2022-12-25T08:38:45.622Z,84.83
2022-12-25T08:41:14.384Z,84.75
2022-12-25T08:43:41.499Z,86.31
2022-12-25T08:46:09.249Z,85.35
2022-12-25T08:48:36.901Z,84.77
2022-12-25T08:51:05.043Z,83.75
2022-12-25T08:53:31.802Z,83.80
2022-12-25T08:56:01.450Z,83.20
2022-12-25T08:58:28.726Z,83.10
2022-12-25T09:00:56.277Z,74.61
2022-12-25T09:03:23.862Z,66.21
2022-12-25T09:05:51.524Z,63.31
2022-12-25T09:08:18.661Z,61.27
2022-12-25T09:10:45.556Z,55.26
2022-12-25T09:13:13.963Z,52.91
2022-12-25T09:15:41.144Z,52.13
2022-12-25T09:18:08.116Z,49.67
2022-12-25T09:20:35.061Z,50.80
2022-12-25T09:23:02.401Z,49.19
2022-12-25T09:25:29.310Z,47.15
2022-12-25T09:27:56.956Z,48.03
2022-12-25T09:30:25.141Z,46.95
2022-12-25T09:32:52.238Z,48.03
2022-12-25T09:35:19.005Z,50.90
2022-12-25T09:37:46.068Z,56.55
2022-12-25T09:40:18.688Z,59.64
2022-12-25T09:42:48.312Z,61.60
2022-12-25T09:45:24.448Z,65.00
2022-12-25T09:47:57.002Z,64.87
2022-12-25T09:50:38.096Z,62.38
2022-12-25T09:53:12.791Z,62.05
2022-12-25T09:55:51.937Z,58.72
2022-12-25T09:58:19.093Z,60.48
2022-12-25T10:00:58.489Z,59.91
2022-12-25T10:03:59.169Z,60.91
2022-12-25T10:06:40.104Z,60.32
2022-12-25T10:09:30.054Z,55.39
2022-12-25T10:12:20.973Z,62.53
2022-12-25T10:15:18.303Z,55.37
2022-12-25T10:18:15.708Z,53.54
2022-12-25T10:20:52.454Z,52.77
2022-12-25T10:23:27.087Z,51.81
2022-12-25T10:25:56.526Z,54.50
2022-12-25T10:28:33.582Z,54.43
2022-12-25T10:31:18.316Z,54.76
2022-12-25T10:33:45.487Z,53.79
2022-12-25T10:36:17.923Z,58.18
2022-12-25T10:38:44.971Z,57.56
2022-12-25T10:41:29.428Z,54.64
2022-12-25T10:43:57.613Z,53.85
2022-12-25T10:46:28.820Z,53.33
2022-12-25T10:48:59.951Z,52.87
2022-12-25T10:51:32.096Z,51.67
2022-12-25T10:53:59.615Z,51.34
2022-12-25T10:56:26.411Z,56.71
2022-12-25T10:59:05.116Z,53.50
2022-12-25T11:01:32.405Z,49.11
2022-12-25T11:03:59.660Z,49.44
2022-12-25T11:06:31.877Z,49.92
2022-12-25T11:09:02.212Z,57.89
2022-12-25T11:11:30.375Z,60.95
2022-12-25T11:14:01.968Z,60.82
2022-12-25T11:16:36.570Z,61.23
2022-12-25T11:19:22.475Z,61.42
2022-12-25T11:21:54.612Z,61.28
2022-12-25T11:24:26.775Z,60.49
2022-12-25T11:26:57.323Z,61.68
2022-12-25T11:29:37.103Z,59.50
2022-12-25T11:32:12.744Z,57.80
2022-12-25T11:34:45.683Z,58.35
2022-12-25T11:37:20.136Z,56.57
2022-12-25T11:39:47.342Z,58.54
2022-12-25T11:42:22.595Z,57.63
2022-12-25T11:44:56.541Z,62.17
2022-12-25T11:47:34.928Z,62.08
2022-12-25T11:50:14.741Z,59.49
2022-12-25T11:52:48.048Z,59.29
2022-12-25T11:55:23.781Z,59.71
2022-12-25T11:57:57.110Z,60.55
2022-12-25T12:00:25.126Z,59.05
2022-12-25T12:03:01.260Z,58.34
2022-12-25T12:05:38.639Z,54.81
2022-12-25T12:08:09.300Z,52.69
2022-12-25T12:11:00.471Z,56.03
2022-12-25T12:13:40.984Z,55.44
2022-12-25T12:16:10.086Z,57.86
2022-12-25T12:18:37.960Z,57.20
2022-12-25T12:21:18.408Z,56.33
2022-12-25T12:23:54.561Z,56.34
2022-12-25T12:26:25.762Z,56.75
2022-12-25T12:28:56.793Z,60.77
2022-12-25T12:31:25.595Z,56.72
2022-12-25T12:33:56.393Z,59.34
2022-12-25T12:36:35.731Z,57.77
2022-12-25T12:39:05.601Z,54.46
2022-12-25T12:41:48.240Z,53.45
2022-12-25T12:44:17.526Z,56.72
2022-12-25T12:46:53.512Z,55.84
2022-12-25T12:49:24.604Z,59.52
2022-12-25T12:52:04.819Z,63.77
2022-12-25T12:54:46.519Z,66.79
2022-12-25T12:57:26.386Z,65.30
2022-12-25T12:59:53.337Z,62.16
2022-12-25T13:03:23.191Z,61.80
2022-12-25T13:05:57.834Z,62.02
2022-12-25T13:08:42.264Z,62.42
2022-12-25T13:11:19.938Z,62.58
2022-12-25T13:13:51.293Z,62.45
2022-12-25T13:16:26.956Z,63.12
2022-12-25T13:18:56.451Z,64.92
2022-12-25T13:21:26.547Z,65.27
2022-12-25T13:23:59.480Z,65.39
2022-12-25T13:26:29.767Z,66.78
2022-12-25T13:28:57.491Z,67.52
2022-12-25T13:31:27.283Z,68.11
2022-12-25T13:34:00.741Z,68.00
2022-12-25T13:36:30.844Z,68.38
2022-12-25T13:38:59.719Z,68.21
2022-12-25T13:41:41.506Z,67.95
2022-12-25T13:44:18.607Z,68.80
2022-12-25T13:46:45.959Z,68.71
2022-12-25T13:49:18.282Z,69.07
2022-12-25T13:51:46.504Z,69.59
2022-12-25T13:54:16.233Z,70.03
2022-12-25T13:56:51.602Z,69.09
2022-12-25T13:59:24.772Z,67.98
2022-12-25T14:01:53.182Z,69.41
2022-12-25T14:04:23.605Z,68.48
2022-12-25T14:06:52.161Z,66.41
2022-12-25T14:09:20.350Z,66.56
2022-12-25T14:11:53.003Z,66.81
2022-12-25T14:14:24.169Z,66.28
2022-12-25T14:16:56.437Z,66.42
2022-12-25T14:19:27.084Z,66.52
2022-12-25T14:22:01.099Z,65.63
2022-12-25T14:24:31.399Z,66.47
2022-12-25T14:27:04.420Z,67.48
2022-12-25T14:29:39.546Z,68.85
2022-12-25T14:32:13.813Z,69.44
2022-12-25T14:34:43.468Z,69.75
2022-12-25T14:37:17.869Z,70.49
2022-12-25T14:39:44.908Z,70.74
2022-12-25T14:42:21.602Z,70.42
2022-12-25T14:45:02.018Z,70.33
2022-12-25T14:47:31.237Z,70.79
2022-12-25T14:49:58.185Z,71.08
2022-12-25T14:52:29.565Z,71.25
2022-12-25T14:55:02.074Z,72.10
2022-12-25T14:57:37.512Z,71.79
2022-12-25T15:00:20.317Z,72.07
2022-12-25T15:02:57.460Z,72.32
2022-12-25T15:05:37.443Z,72.75
2022-12-25T15:08:23.609Z,73.05
2022-12-25T15:11:01.212Z,72.82
2022-12-25T15:13:31.893Z,72.95
2022-12-25T15:16:08.694Z,73.44
2022-12-25T15:18:41.425Z,73.52
2022-12-25T15:21:17.348Z,73.86
2022-12-25T15:23:44.610Z,73.86
2022-12-25T15:26:13.672Z,74.46
2022-12-25T15:28:42.212Z,74.64
2022-12-25T15:31:20.763Z,74.58
2022-12-25T15:33:47.814Z,74.39
2022-12-25T15:36:15.126Z,74.33
2022-12-25T15:38:42.005Z,74.45
2022-12-25T15:41:13.624Z,74.47
2022-12-25T15:43:45.463Z,74.94
2022-12-25T15:46:12.905Z,74.82
2022-12-25T15:48:39.789Z,74.70
2022-12-25T15:51:06.731Z,74.46
2022-12-25T15:53:33.639Z,74.90
2022-12-25T15:56:00.512Z,75.11
2022-12-25T15:58:27.604Z,75.64
2022-12-25T16:00:55.752Z,75.80
2022-12-25T16:03:22.607Z,76.47
2022-12-25T16:05:49.579Z,76.36
2022-12-25T16:08:16.443Z,76.38
2022-12-25T16:10:43.256Z,78.33
2022-12-25T16:13:09.980Z,77.53
2022-12-25T16:15:37.173Z,77.66
2022-12-25T16:18:06.803Z,77.75
2022-12-25T16:20:35.423Z,77.95
2022-12-25T16:23:02.240Z,77.45
2022-12-25T16:25:29.263Z,77.59
2022-12-25T16:27:56.381Z,78.45
2022-12-25T16:30:25.174Z,79.15
2022-12-25T16:32:52.334Z,78.81
2022-12-25T16:35:20.800Z,78.58
2022-12-25T16:37:55.188Z,79.05
2022-12-25T16:40:22.305Z,79.79
2022-12-25T16:42:49.801Z,79.46
2022-12-25T16:45:20.668Z,79.61
2022-12-25T16:47:47.575Z,79.32
2022-12-25T16:50:16.083Z,78.92
2022-12-25T16:52:44.634Z,78.77
2022-12-25T16:55:11.487Z,79.28
2022-12-25T16:57:38.652Z,80.80
2022-12-25T17:00:07.638Z,79.79
2022-12-25T17:02:34.692Z,79.92
2022-12-25T17:05:01.792Z,80.45
2022-12-25T17:07:28.660Z,80.32
2022-12-25T17:09:57.306Z,80.98
2022-12-25T17:12:24.191Z,81.68
2022-12-25T17:14:51.895Z,81.58
2022-12-25T17:17:18.701Z,81.65
2022-12-25T17:19:46.232Z,81.57
2022-12-25T17:22:13.328Z,80.99
2022-12-25T17:24:40.770Z,80.60
2022-12-25T17:27:09.179Z,80.12
2022-12-25T17:29:36.647Z,80.50
2022-12-25T17:32:03.423Z,83.56
2022-12-25T17:34:30.261Z,83.74
2022-12-25T17:36:57.208Z,84.05
2022-12-25T17:39:24.475Z,83.68
2022-12-25T17:41:51.513Z,82.07
2022-12-25T17:44:20.240Z,80.79
2022-12-25T17:46:47.951Z,81.37
2022-12-25T17:49:18.621Z,81.86
2022-12-25T17:51:46.511Z,82.14
2022-12-25T17:54:14.085Z,82.53
2022-12-25T17:56:41.145Z,82.60
2022-12-25T17:59:08.061Z,82.26
2022-12-25T18:01:39.159Z,82.28
2022-12-25T18:04:06.745Z,82.73
2022-12-25T18:06:36.112Z,83.75
2022-12-25T18:09:04.530Z,86.36
2022-12-25T18:11:31.308Z,83.48
2022-12-25T18:14:02.635Z,83.53
2022-12-25T18:16:33.528Z,83.11
2022-12-25T18:19:02.950Z,83.42
2022-12-25T18:21:30.451Z,83.80
2022-12-25T18:23:57.911Z,83.86
2022-12-25T18:26:25.008Z,84.14
2022-12-25T18:28:51.911Z,85.64
2022-12-25T18:31:24.305Z,86.63
2022-12-25T18:33:56.185Z,85.22
2022-12-25T18:36:27.981Z,85.87
2022-12-25T18:38:56.660Z,86.68
2022-12-25T18:41:24.155Z,86.52
2022-12-25T18:43:55.259Z,85.98
2022-12-25T18:46:25.341Z,85.82
2022-12-25T18:48:53.861Z,85.23
2022-12-25T18:51:20.804Z,85.47
2022-12-25T18:53:49.451Z,84.91
2022-12-25T18:56:18.268Z,85.39
2022-12-25T18:58:46.316Z,86.21
2022-12-25T19:01:17.638Z,86.17
2022-12-25T19:03:45.389Z,86.29
2022-12-25T19:06:17.750Z,85.62
2022-12-25T19:08:44.932Z,85.90
2022-12-25T19:11:14.824Z,87.56
2022-12-25T19:13:41.942Z,88.39
2022-12-25T19:16:09.134Z,86.55
2022-12-25T19:18:36.390Z,86.51
2022-12-25T19:21:05.619Z,87.07
2022-12-25T19:23:32.921Z,86.37
2022-12-25T19:26:00.709Z,85.03
2022-12-25T19:28:29.380Z,84.48
2022-12-25T19:30:59.831Z,83.57
2022-12-25T19:33:27.716Z,83.96
2022-12-25T19:36:00.356Z,84.12
2022-12-25T19:38:29.096Z,83.13
2022-12-25T19:40:56.369Z,83.40
2022-12-25T19:43:23.226Z,82.11
2022-12-25T19:45:52.043Z,82.81
2022-12-25T19:48:18.840Z,82.23
2022-12-25T19:50:45.979Z,82.84
2022-12-25T19:53:13.194Z,82.28
2022-12-25T19:55:40.021Z,79.40
2022-12-25T19:58:06.810Z,80.38
2022-12-25T20:00:33.585Z,78.26
2022-12-25T20:03:02.034Z,78.62
2022-12-25T20:05:29.231Z,78.42
2022-12-25T20:07:56.161Z,76.99
2022-12-25T20:10:23.651Z,77.19
2022-12-25T20:12:51.606Z,76.80
2022-12-25T20:15:19.419Z,77.64
2022-12-25T20:17:46.906Z,76.75
2022-12-25T20:20:15.397Z,76.42
2022-12-25T20:22:42.236Z,75.35
2022-12-25T20:25:09.580Z,75.35
2022-12-25T20:27:36.898Z,75.04
2022-12-25T20:30:05.282Z,75.81
2022-12-25T20:32:32.082Z,76.52
2022-12-25T20:34:59.165Z,76.63
2022-12-25T20:37:27.280Z,75.93
2022-12-25T20:39:54.346Z,75.80
2022-12-25T20:42:21.250Z,75.03
2022-12-25T20:44:48.734Z,75.50
2022-12-25T20:47:15.812Z,74.68
2022-12-25T20:49:42.716Z,75.18
2022-12-25T20:52:09.705Z,74.70
2022-12-25T20:54:37.841Z,75.27
2022-12-25T20:57:04.710Z,73.91
2022-12-25T20:59:37.181Z,73.58
2022-12-25T21:02:04.872Z,73.92
2022-12-25T21:04:31.938Z,74.25
2022-12-25T21:06:58.822Z,73.63
2022-12-25T21:09:25.967Z,73.96
2022-12-25T21:11:54.239Z,73.57
2022-12-25T21:14:21.203Z,73.62
2022-12-25T21:16:48.170Z,73.93
2022-12-25T21:19:15.347Z,74.00
2022-12-25T21:21:42.340Z,74.44
2022-12-25T21:24:10.198Z,74.47
2022-12-25T21:26:40.759Z,74.38
2022-12-25T21:29:12.035Z,74.27
2022-12-25T21:31:39.092Z,74.28
2022-12-25T21:34:05.946Z,73.92
2022-12-25T21:36:34.584Z,74.26
2022-12-25T21:39:05.181Z,74.07
2022-12-25T21:41:34.173Z,73.86
2022-12-25T21:44:01.551Z,74.51
2022-12-25T21:46:30.266Z,74.82
2022-12-25T21:48:58.826Z,74.27
2022-12-25T21:51:28.765Z,74.30
2022-12-25T21:53:56.048Z,75.25
2022-12-25T21:56:23.570Z,74.48
2022-12-25T21:58:50.419Z,75.44
2022-12-25T22:01:17.897Z,75.06
2022-12-25T22:03:46.428Z,74.84
2022-12-25T22:06:19.288Z,75.20
2022-12-25T22:08:48.087Z,75.07
2022-12-25T22:11:14.996Z,75.42
2022-12-25T22:13:42.180Z,75.30
2022-12-25T22:16:09.019Z,73.59
2022-12-25T22:18:36.360Z,74.18
2022-12-25T22:21:04.538Z,73.88
2022-12-25T22:23:31.387Z,73.12
2022-12-25T22:25:58.252Z,72.70
2022-12-25T22:28:25.310Z,70.50
2022-12-25T22:30:52.581Z,71.00
2022-12-25T22:33:19.362Z,69.87
2022-12-25T22:35:46.461Z,70.35
2022-12-25T22:38:14.601Z,69.57
2022-12-25T22:40:41.454Z,70.14
2022-12-25T22:43:08.300Z,69.63
2022-12-25T22:45:35.118Z,69.88
2022-12-25T22:48:01.962Z,69.81
2022-12-25T22:50:28.803Z,69.89
2022-12-25T22:52:55.632Z,70.51
2022-12-25T22:55:24.125Z,70.33
2022-12-25T22:57:50.896Z,70.70
2022-12-25T23:00:17.924Z,70.89
2022-12-25T23:02:44.843Z,70.83
2022-12-25T23:05:12.056Z,70.57
2022-12-25T23:07:38.887Z,70.87
2022-12-25T23:10:07.466Z,70.63
2022-12-25T23:12:35.671Z,70.80
2022-12-25T23:15:03.312Z,70.66
2022-12-25T23:17:30.439Z,70.98
2022-12-25T23:20:00.035Z,70.99
2022-12-25T23:22:26.876Z,71.35
2022-12-25T23:24:53.840Z,71.10
2022-12-25T23:27:20.814Z,71.19
2022-12-25T23:29:48.891Z,71.74
2022-12-25T23:32:20.213Z,72.18
2022-12-25T23:34:47.475Z,72.12
2022-12-25T23:37:14.840Z,72.19
2022-12-25T23:39:41.819Z,72.45
2022-12-25T23:42:08.812Z,72.88
2022-12-25T23:44:36.102Z,72.69
2022-12-25T23:47:04.863Z,72.98
2022-12-25T23:49:32.204Z,73.42
2022-12-25T23:51:59.071Z,73.18
2022-12-25T23:54:30.610Z,73.64
2022-12-25T23:56:58.807Z,73.45
2022-12-25T23:59:27.648Z,73.27
